Latest Weather Observations for Willis Island

IDQ60801

Issued at 5:32 pm EST Saturday 24 August 2019 (issued every 10 minutes, with the page automatically refreshed every 10 minutes)

About weather observations | Map of weather stations | Latest weather observations for QLD | Other Formats
Station Details ID: 200283 Name: WILLIS ISLAND Lat: -16.29 Lon: 149.97 Height: 9.29 m
Data from the previous 72 hours. | See also: Recent months at Willis Island
Date/Time
EST
Temp
°C
App
Temp
°C
Dew
Point
°C
Rel
Hum
%
Delta-T
°C
Wind Press
QNH
hPa
Press
MSL
hPa
Rain since
9am
mm
Dir  Spd
km/h
Gust
km/h
Spd
kts
Gust
kts
24/05:30pm 24.2 21.1 18.4 70 3.7 ESE 32 35 17 19 1016.2 1016.1 0.0
24/05:00pm 24.6 21.6 16.8 62 4.8 ESE 28 33 15 18 1016.1 1016.0 0.0
24/04:30pm 25.1 22.0 16.5 59 5.3 ESE 28 32 15 17 1016.0 1015.9 0.0
24/04:00pm 25.4 21.8 16.3 57 5.6 ESE 30 35 16 19 1015.8 1015.7 0.0
24/03:30pm 25.8 22.6 16.4 56 5.8 ESE 28 33 15 18 1015.7 1015.6 0.0
24/03:00pm 26.1 22.1 16.1 54 6.1 ESE 32 35 17 19 1015.7 1015.6 0.0
24/02:30pm 26.4 22.9 16.6 55 6.1 ESE 30 33 16 18 1015.8 1015.7 0.0
24/02:00pm 26.5 23.1 17.8 58 5.5 ESE 32 37 17 20 1016.2 1016.1 0.0
24/01:30pm 26.7 22.7 16.6 54 6.3 ESE 33 39 18 21 1016.3 1016.2 0.0
24/01:00pm 27.4 25.7 18.1 57 5.9 ESE 24 30 13 16 1016.6 1016.5 0.0
24/12:30pm 26.3 24.6 17.1 57 5.7 ESE 22 28 12 15 1017.2 1017.1 0.0
24/12:00pm 26.9 23.7 16.2 52 6.6 ESE 28 32 15 17 1017.4 1017.3 0.0
24/11:30am 26.7 23.4 16.0 52 6.6 ESE 28 33 15 18 1017.7 1017.6 0.0
24/11:00am 26.6 23.6 16.8 55 6.1 ESE 28 32 15 17 1018.0 1017.9 0.0
24/10:30am 26.5 22.7 15.8 51 6.5 ESE 30 32 16 17 1018.3 1018.2 0.0
24/10:00am 26.4 21.8 15.1 49 6.8 ESE 33 39 18 21 1018.5 1018.4 0.0
24/09:30am 25.9 20.1 15.0 51 6.6 ESE 39 44 21 24 1018.7 1018.6 0.0
24/09:00am 26.0 20.3 15.1 51 6.6 ESE 39 46 21 25 1018.7 1018.6 0.0
24/08:30am 25.7 20.8 15.4 53 6.2 ESE 35 43 19 23 1018.5 1018.4 0.0
24/08:00am 24.5 19.7 15.7 58 5.3 ESE 35 43 19 23 1018.6 1018.5 0.0
24/07:30am 24.3 21.0 17.1 64 4.5 SE 30 33 16 18 1018.4 1018.3 0.0
24/07:00am 24.0 19.8 16.3 62 4.7 ESE 33 39 18 21 1018.0 1017.9 0.0
24/06:30am 23.9 20.7 15.4 59 5.1 ESE 26 32 14 17 1017.9 1017.8 0.0
24/06:00am 23.7 19.8 14.4 56 5.5 ESE 28 32 15 17 1017.8 1017.7 0.0
24/05:57am 23.7 19.9 14.7 57 5.3 ESE 28 33 15 18 1017.7 1017.6 0.0
24/05:30am 24.0 18.3 14.1 54 5.8 E 37 44 20 24 1017.4 1017.3 0.0
24/05:00am 23.8 19.2 13.4 52 6.0 ESE 30 35 16 19 1017.1 1017.0 0.0
24/04:30am 23.9 18.3 13.4 51 6.1 ESE 35 39 19 21 1016.9 1016.8 0.0
24/04:00am 23.5 18.6 15.3 60 4.9 SE 35 41 19 22 1017.0 1016.9 0.0
24/03:30am 23.5 19.0 15.0 59 5.1 SE 32 39 17 21 1016.9 1016.8 0.0
24/03:00am 23.5 19.2 15.5 60 4.8 SE 32 37 17 20 1016.9 1016.8 0.0
24/02:30am 23.7 19.6 16.0 62 4.7 SE 32 37 17 20 1017.1 1017.0 0.0
24/02:00am 23.4 18.3 14.9 59 5.0 SE 35 44 19 24 1017.2 1017.1 0.0
24/01:30am 23.5 19.0 15.5 60 4.8 SE 33 39 18 21 1017.5 1017.4 0.0
24/01:00am 23.5 19.3 15.8 62 4.6 SE 32 39 17 21 1017.5 1017.4 0.0
24/12:30am 23.5 19.2 15.3 60 4.9 SE 32 37 17 20 1017.8 1017.7 0.0
24/12:00am 23.4 18.5 13.6 54 5.7 ESE 32 35 17 19 1018.1 1018.0 0.0
 
Date/Time
EST
Temp
°C
App
Temp
°C
Dew
Point
°C
Rel
Hum
%
Delta-T
°C
Wind Press
QNH
hPa
Press
MSL
hPa
Rain since
9am
mm
Dir  Spd
km/h
Gust
km/h
Spd
kts
Gust
kts
23/11:30pm 23.5 18.0 14.8 58 5.2 ESE 37 43 20 23 1018.2 1018.1 0.0
23/11:00pm 23.4 18.3 14.9 59 5.0 ESE 35 41 19 22 1018.4 1018.3 0.0
23/10:30pm 23.6 18.3 13.2 52 6.0 ESE 33 41 18 22 1018.6 1018.5 0.0
23/10:00pm 23.5 18.6 13.7 54 5.7 ESE 32 37 17 20 1018.9 1018.8 0.0
23/09:30pm 23.7 19.0 14.9 57 5.2 ESE 33 41 18 22 1018.9 1018.8 0.0
23/09:00pm 23.6 18.3 14.3 56 5.5 SE 35 39 19 21 1018.8 1018.7 0.0
23/08:30pm 23.6 18.4 13.5 53 5.9 SE 33 41 18 22 1018.7 1018.6 0.0
23/08:00pm 23.8 19.6 15.6 60 4.9 ESE 32 39 17 21 1018.5 1018.4 0.0
23/07:30pm 23.5 19.1 14.2 56 5.5 ESE 30 35 16 19 1018.1 1018.0 0.0
23/07:00pm 23.5 18.8 14.2 56 5.5 SE 32 37 17 20 1018.0 1017.9 0.0
23/06:30pm 23.5 18.4 13.7 54 5.7 SE 33 43 18 23 1017.7 1017.6 0.0
23/06:00pm 23.4 18.3 13.6 54 5.7 SE 33 41 18 22 1017.4 1017.3 0.0
23/05:30pm 23.6 18.9 14.3 56 5.5 SE 32 39 17 21 1017.1 1017.0 0.0
23/05:00pm 23.9 19.2 14.3 55 5.7 ESE 32 37 17 20 1016.8 1016.7 0.0
23/04:30pm 24.3 19.3 13.5 51 6.3 SE 32 43 17 23 1016.4 1016.3 0.0
23/04:00pm 24.8 19.6 12.7 47 7.0 SE 32 37 17 20 1016.2 1016.1 0.0
23/03:30pm 25.4 20.8 13.6 48 6.9 SE 30 37 16 20 1016.1 1016.0 0.0
23/03:00pm 25.5 20.6 12.7 45 7.4 SE 30 37 16 20 1016.1 1016.0 0.0
23/02:30pm 25.4 20.7 14.2 50 6.6 ESE 32 39 17 21 1016.1 1016.0 0.0
23/02:00pm 25.7 20.6 13.2 46 7.3 ESE 32 37 17 20 1016.4 1016.3 0.0
23/01:30pm 25.9 20.6 13.1 45 7.5 E 33 39 18 21 1016.8 1016.7 0.0
23/01:00pm 26.0 20.4 12.1 42 8.0 E 33 39 18 21 1017.2 1017.1 0.0
23/12:30pm 25.5 19.3 11.3 41 8.0 E 35 43 19 23 1017.4 1017.3 0.0
23/12:00pm 25.7 20.0 11.8 42 7.9 ESE 33 39 18 21 1017.7 1017.6 0.0
23/11:30am 25.5 19.7 12.7 45 7.4 ESE 35 43 19 23 1018.2 1018.1 0.0
23/11:00am 25.3 18.8 11.8 43 7.7 ESE 37 43 20 23 1018.6 1018.5 0.0
23/10:30am 25.2 20.1 13.7 49 6.8 ESE 33 39 18 21 1018.7 1018.6 0.0
23/10:00am 24.8 19.2 13.4 49 6.6 ESE 35 41 19 22 1018.8 1018.7 0.0
23/09:30am 24.5 18.6 12.5 47 6.9 ESE 35 41 19 22 1019.0 1018.9 0.0
23/09:00am 24.5 19.7 14.0 52 6.2 ESE 32 39 17 21 1018.8 1018.7 0.0
23/08:30am 23.9 19.0 13.7 53 6.0 ESE 32 37 17 20 1018.5 1018.4 0.0
23/08:00am 23.3 18.9 12.9 52 6.0 ESE 28 37 15 20 1018.3 1018.2 0.0
23/07:30am 22.7 18.6 13.7 56 5.2 ESE 28 32 15 17 1018.0 1017.9 0.0
23/07:00am 22.3 18.5 13.6 58 5.0 ESE 26 35 14 19 1017.5 1017.4 0.0
23/06:30am 21.6 17.7 13.2 59 4.8 SE 26 33 14 18 1017.1 1017.0 0.0
23/06:00am 21.4 17.8 14.1 63 4.2 SE 26 32 14 17 1016.9 1016.8 0.0
23/05:30am 21.4 17.4 14.1 63 4.2 SE 28 37 15 20 1016.6 1016.5 0.0
23/05:00am 21.4 17.8 14.1 63 4.2 SE 26 33 14 18 1016.2 1016.1 0.0
23/04:30am 21.4 17.3 13.8 62 4.4 SE 28 33 15 18 1015.9 1015.8 0.0
23/04:00am 21.3 17.3 14.2 64 4.1 SE 28 35 15 19 1015.7 1015.6 0.0
23/03:30am 21.2 17.9 14.1 64 4.1 SE 24 30 13 16 1015.7 1015.6 0.0
23/03:00am 21.3 18.1 14.2 64 4.1 ESE 24 30 13 16 1015.6 1015.5 0.0
23/02:30am 21.4 18.1 14.1 63 4.2 SE 24 32 13 17 1015.9 1015.8 0.0
23/02:00am 21.5 18.3 14.2 63 4.3 SE 24 30 13 16 1016.1 1016.0 0.0
23/01:30am 21.5 18.3 14.2 63 4.3 SE 24 30 13 16 1016.5 1016.4 0.0
23/01:00am 21.4 18.1 14.1 63 4.2 SE 24 32 13 17 1016.7 1016.6 0.0
23/12:30am 21.8 18.7 14.4 63 4.3 SE 24 32 13 17 1017.0 1016.9 0.0
23/12:00am 21.7 18.6 14.4 63 4.3 SSE 24 32 13 17 1017.3 1017.2 0.0
 
Date/Time
EST
Temp
°C
App
Temp
°C
Dew
Point
°C
Rel
Hum
%
Delta-T
°C
Wind Press
QNH
hPa
Press
MSL
hPa
Rain since
9am
mm
Dir  Spd
km/h
Gust
km/h
Spd
kts
Gust
kts
22/11:30pm 21.6 18.3 14.0 62 4.4 SE 24 32 13 17 1017.5 1017.4 0.0
22/11:00pm 22.0 19.0 14.9 64 4.2 SE 24 32 13 17 1017.8 1017.7 0.0
22/10:30pm 21.8 18.9 13.9 61 4.6 SE 22 32 12 17 1017.9 1017.8 0.0
22/10:00pm 21.9 18.8 14.5 63 4.3 SSE 24 33 13 18 1018.0 1017.9 0.0
22/09:30pm 21.8 19.0 14.2 62 4.4 SE 22 28 12 15 1018.0 1017.9 0.0
22/09:00pm 21.9 19.1 14.3 62 4.4 SSE 22 28 12 15 1018.0 1017.9 0.0
22/08:30pm 22.0 18.0 14.1 61 4.6 SE 28 35 15 19 1017.9 1017.8 0.0
22/08:00pm 22.0 17.8 13.4 58 4.9 SE 28 33 15 18 1017.7 1017.6 0.0
22/07:30pm 22.1 18.1 14.2 61 4.6 SSE 28 32 15 17 1017.4 1017.3 0.0
22/07:00pm 22.3 18.5 14.7 62 4.5 SE 28 33 15 18 1017.1 1017.0 0.0
22/06:30pm 22.3 18.4 14.4 61 4.6 SSE 28 33 15 18 1016.7 1016.6 0.0
22/06:00pm 22.3 17.4 13.6 58 5.0 SE 32 37 17 20 1016.2 1016.1 0.0
22/05:30pm 22.6 17.9 14.4 60 4.8 SSE 32 39 17 21 1016.1 1016.0 0.0
22/05:00pm 23.1 18.2 13.8 55 5.4 SSE 32 39 17 21 1015.9 1015.8 0.0
22/04:30pm 23.1 18.1 14.1 57 5.3 SSE 33 39 18 21 1015.5 1015.4 0.0
22/04:00pm 23.8 18.5 14.2 55 5.6 SSE 35 41 19 22 1015.3 1015.2 0.0
22/03:30pm 24.2 18.4 12.8 49 6.6 SSE 35 44 19 24 1015.1 1015.0 0.0
22/03:00pm 24.5 18.6 13.7 51 6.3 SSE 37 44 20 24 1014.9 1014.8 0.0
22/02:30pm 23.8 19.2 15.0 57 5.3 SSE 33 39 18 21 1015.3 1015.2 0.0
22/02:00pm 25.3 20.3 13.5 48 6.9 SE 32 37 17 20 1015.5 1015.4 0.0
22/01:30pm 25.1 20.0 13.0 47 7.0 SE 32 37 17 20 1015.9 1015.8 0.0
22/01:00pm 25.7 21.1 13.5 46 7.2 SE 30 35 16 19 1016.2 1016.1 0.0
22/12:30pm 25.0 20.7 15.3 55 5.8 SE 32 43 17 23 1016.4 1016.3 0.0
22/12:00pm 25.3 20.9 14.1 50 6.6 SE 30 35 16 19 1017.0 1016.9 0.0
22/11:30am 25.1 20.1 13.3 48 6.9 SE 32 39 17 21 1017.4 1017.3 0.0
22/11:00am 24.9 19.2 13.1 48 6.8 SE 35 43 19 23 1017.7 1017.6 0.0
22/10:30am 24.1 18.7 13.9 53 6.0 SSE 35 43 19 23 1017.8 1017.7 0.0
22/10:00am 24.3 18.8 13.5 51 6.3 SSE 35 46 19 25 1018.0 1017.9 0.0
22/09:30am 25.2 20.3 13.7 49 6.8 SE 32 37 17 20 1018.1 1018.0 0.0
22/09:00am 24.3 19.4 13.8 52 6.1 SE 32 37 17 20 1018.0 1017.9 0.0
22/08:30am 23.8 18.9 14.2 55 5.7 SSE 33 41 18 22 1018.0 1017.9 0.0
22/08:00am 23.5 18.4 13.1 52 6.0 SE 32 43 17 23 1017.7 1017.6 0.0
22/07:30am 23.3 17.9 14.0 56 5.4 SE 35 41 19 22 1017.3 1017.2 0.0
22/07:00am 23.0 17.9 14.8 60 4.9 SE 35 46 19 25 1017.1 1017.0 0.0
22/06:30am 22.5 17.4 14.9 62 4.5 SE 35 44 19 24 1016.8 1016.7 0.0
22/06:00am 22.4 16.7 14.3 60 4.7 SE 37 43 20 23 1016.6 1016.5 0.0
22/05:30am 22.5 17.6 15.4 64 4.2 SE 35 43 19 23 1016.4 1016.3 0.0
22/05:00am 22.4 18.4 15.3 64 4.2 SSE 30 39 16 21 1016.3 1016.2 0.0
22/04:30am 22.4 18.7 16.0 67 3.9 SSE 30 37 16 20 1016.1 1016.0 0.0
22/04:00am 22.3 18.3 15.2 64 4.2 SSE 30 39 16 21 1016.0 1015.9 0.0
22/03:30am 22.4 17.7 14.8 62 4.5 SSE 33 37 18 20 1016.0 1015.9 0.0
22/03:00am 22.5 17.6 14.4 60 4.8 SE 33 39 18 21 1016.3 1016.2 0.0
22/02:30am 22.4 17.9 15.0 63 4.4 SSE 32 41 17 22 1016.5 1016.4 0.0
22/02:00am 22.5 18.2 15.8 66 4.0 SE 33 39 18 21 1016.6 1016.5 0.0
22/01:30am 22.4 17.8 15.0 63 4.4 SSE 33 39 18 21 1017.0 1016.9 0.0
22/01:00am 22.5 17.7 15.6 65 4.1 SSE 35 43 19 23 1017.3 1017.2 0.0
22/12:30am 22.6 17.7 15.4 64 4.3 SE 35 46 19 25 1017.7 1017.6 0.0
22/12:00am 23.0 18.5 16.3 66 4.1 SSE 35 41 19 22 1018.0 1017.9 0.0
 
Date/Time
EST
Temp
°C
App
Temp
°C
Dew
Point
°C
Rel
Hum
%
Delta-T
°C
Wind Press
QNH
hPa
Press
MSL
hPa
Rain since
9am
mm
Dir  Spd
km/h
Gust
km/h
Spd
kts
Gust
kts
21/11:30pm 23.0 18.0 15.1 61 4.7 SE 35 41 19 22 1018.1 1018.0 0.0
21/11:00pm 23.0 18.3 15.8 64 4.3 SE 35 43 19 23 1018.3 1018.2 0.0
21/10:30pm 23.0 18.6 15.6 63 4.4 SE 33 39 18 21 1018.7 1018.6 0.0
21/10:00pm 22.9 17.9 15.0 61 4.7 SE 35 41 19 22 1018.9 1018.8 0.0
21/09:30pm 23.2 18.7 16.3 65 4.2 SE 35 41 19 22 1018.9 1018.8 0.0
21/09:00pm 23.1 18.2 15.4 62 4.6 SE 35 43 19 23 1018.8 1018.7 0.0
21/08:30pm 23.0 17.5 14.8 60 4.9 SSE 37 43 20 23 1018.7 1018.6 0.0
21/08:00pm 23.1 18.0 15.9 64 4.3 SSE 37 44 20 24 1018.6 1018.5 0.0
21/07:30pm 23.4 18.3 16.9 67 4.0 SSE 39 46 21 25 1018.3 1018.2 0.0
21/07:00pm 23.3 17.7 16.6 66 4.1 SSE 41 46 22 25 1018.0 1017.9 0.0
21/06:30pm 23.3 17.4 16.6 66 4.1 SE 43 50 23 27 1017.5 1017.4 0.0
21/06:00pm 23.6 18.6 17.1 67 4.0 SE 39 46 21 25 1017.1 1017.0 0.0

Other formats

Comma delimited format used in spreadsheet applications
http://www.bom.gov.au/fwo/IDQ60801/IDQ60801.94299.axf

JavaScript Object Notation format (JSON) in row-major order
http://www.bom.gov.au/fwo/IDQ60801/IDQ60801.94299.json

Data quality

Most of these data are generated automatically and are frequently updated. Quality checks on data are not normally performed. It is possible for incorrect values to appear. Refer to information at About Latest Weather Observations and please check the disclaimer before using these data.